Time;durP1;ratioP1;P1;durP2;ratioP2;P2;SDS_P1;SDS_P2;PMS_P1;PMS_P2;Temp;Humidity;BMP_temperature;BMP_pressure;BME280_temperature;BME280_humidity;BME280_pressure;Samples;Min_cycle;Max_cycle;Signal;HPM_P1;HPM_P2
2023/07/09 00:01:52;;;;;;;;;;;;;;;22.28;46.87;98324.47;4979088;28;19926;-62
2023/07/09 00:04:21;;;;;;;;;;;;;;;22.25;47.08;98327.97;4970077;28;19933;-62
2023/07/09 00:06:50;;;;;;;;;;;;;;;22.31;46.87;98336.72;4976911;28;19959;-62
2023/07/09 00:09:43;;;;;;;;;;;;;;;21.98;47.90;98330.78;4977245;28;20303;-63
2023/07/09 00:15:28;;;;;;;;;;;;;;;22.14;47.29;98332.59;4975635;28;19926;-62
2023/07/09 00:17:56;;;;;;;;;;;;;;;22.10;47.60;98332.53;4973833;28;20280;-62
2023/07/09 00:20:24;;;;;;;;;;;;;;;22.08;47.63;98328.53;4965826;28;19933;-63
2023/07/09 00:22:55;;;;;;;;;;;;;;;22.12;47.80;98340.50;4973683;28;19939;-64
2023/07/09 00:25:24;;;;;;;;;;;;;;;22.08;47.34;98334.88;4967412;28;20007;-62
2023/07/09 00:27:52;;;;;;;;;;;;;;;22.07;47.49;98338.03;4970858;28;20299;-64
2023/07/09 00:30:21;;;;;;;;;;;;;;;22.14;47.27;98335.34;4973226;28;19930;-62
2023/07/09 00:32:50;;;;;;;;;;;;;;;22.09;47.29;98330.13;4975210;28;19957;-63
2023/07/09 00:35:20;;;;;;;;;;;;;;;22.05;47.65;98334.81;4970965;28;20286;-64
2023/07/09 00:37:48;;;;;;;;;;;;;;;22.00;47.69;98333.22;4968139;28;20009;-63
2023/07/09 00:40:16;;;;;;;;;;;;;;;;;;4970548;28;20374;-62
2023/07/09 00:42:47;;;;;;;;;;;;;;;21.76;48.46;98336.44;4977758;28;20358;-63
2023/07/09 00:45:19;;;;;;;;;;;;;;;21.58;48.80;98345.28;4972406;28;20013;-63
2023/07/09 00:47:49;;;;;;;;;;;;;;;21.34;49.72;98345.72;4973212;28;19930;-62
2023/07/09 00:50:22;;;;;;;;;;;;;;;21.44;49.42;98351.41;4991936;28;19930;-62
2023/07/09 00:53:18;;;;;;;;;;;;;;;21.51;49.35;98347.16;4976064;28;20447;-64
2023/07/09 00:55:47;;;;;;;;;;;;;;;21.56;49.48;98346.81;4967936;28;20016;-63
2023/07/09 00:58:17;;;;;;;;;;;;;;;21.58;49.11;98338.97;4970005;28;20411;-63
2023/07/09 01:00:47;;;;;;;;;;;;;;;21.57;49.34;98343.72;4971194;28;19926;-63
2023/07/09 01:03:41;;;;;;;;;;;;;;;21.18;50.21;98345.84;4971700;28;20052;-63
2023/07/09 01:06:09;;;;;;;;;;;;;;;21.00;50.99;98337.28;4967023;28;19926;-62
2023/07/09 01:08:38;;;;;;;;;;;;;;;20.98;50.95;98338.81;4970972;28;20024;-63
2023/07/09 01:11:08;;;;;;;;;;;;;;;21.16;50.43;98335.16;4990914;28;19953;-63
2023/07/09 01:16:30;;;;;;;;;;;;;;;20.85;51.55;98341.75;4971686;28;19954;-62
2023/07/09 01:19:00;;;;;;;;;;;;;;;20.81;51.57;98343.66;4969029;28;19926;-68
2023/07/09 01:21:29;;;;;;;;;;;;;;;20.83;51.15;98346.88;4972196;28;19956;-63
2023/07/09 01:23:58;;;;;;;;;;;;;;;21.00;50.68;98333.72;4968503;28;19930;-68
2023/07/09 01:29:19;;;;;;;;;;;;;;;21.15;50.10;98349.38;4994030;28;19944;-63
2023/07/09 01:31:51;;;;;;;;;;;;;;;21.12;50.33;98355.63;4972540;28;19930;-62
2023/07/09 01:34:21;;;;;;;;;;;;;;;21.21;49.79;98358.94;4970578;28;19992;-62
2023/07/09 01:36:51;;;;;;;;;;;;;;;21.16;50.02;98348.19;4993552;28;19941;-63
2023/07/09 01:39:19;;;;;;;;;;;;;;;21.17;50.11;98353.34;4993219;28;19930;-62
2023/07/09 01:41:48;;;;;;;;;;;;;;;21.24;49.69;98349.88;4975893;28;19926;-62
2023/07/09 01:44:19;;;;;;;;;;;;;;;21.20;49.92;98351.81;4966782;28;20387;-62
2023/07/09 01:46:48;;;;;;;;;;;;;;;21.16;49.95;98348.97;4968331;28;19926;-62
2023/07/09 01:52:16;;;;;;;;;;;;;;;20.92;50.45;98352.91;4969700;28;19926;-63
2023/07/09 01:54:49;;;;;;;;;;;;;;;20.77;50.81;98351.06;4959900;28;19970;-63
2023/07/09 01:57:22;;;;;;;;;;;;;;;20.69;51.15;98348.56;4988040;28;20286;-62
2023/07/09 01:59:52;;;;;;;;;;;;;;;20.46;51.78;98354.06;4968783;28;19926;-62
2023/07/09 02:05:38;;;;;;;;;;;;;;;20.60;51.52;98354.31;4989300;28;19961;-62
2023/07/09 02:08:07;;;;;;;;;;;;;;;20.54;51.55;98362.13;4978475;28;19926;-62
2023/07/09 02:10:35;;;;;;;;;;;;;;;20.67;51.22;98362.75;4972789;28;20015;-64
2023/07/09 02:13:03;;;;;;;;;;;;;;;20.69;51.14;98365.94;4968708;28;20304;-63
2023/07/09 02:15:32;;;;;;;;;;;;;;;20.38;52.28;98367.69;4969765;28;20074;-66
2023/07/09 02:18:01;;;;;;;;;;;;;;;20.55;51.80;98365.66;4971503;28;19930;-62
2023/07/09 02:20:29;;;;;;;;;;;;;;;20.34;52.31;98361.31;4967533;28;19926;-62
2023/07/09 02:22:58;;;;;;;;;;;;;;;20.38;52.07;98356.66;4970851;28;19934;-65
2023/07/09 02:25:27;;;;;;;;;;;;;;;20.34;51.97;98361.31;4979551;28;19996;-62
2023/07/09 02:27:55;;;;;;;;;;;;;;;20.30;52.14;98357.69;4970342;28;19930;-65
2023/07/09 02:30:23;;;;;;;;;;;;;;;20.37;51.71;98357.81;4969587;28;19934;-63
2023/07/09 02:32:53;;;;;;;;;;;;;;;20.21;52.27;98361.84;4970266;28;19926;-62
2023/07/09 02:35:46;;;;;;;;;;;;;;;20.32;52.04;98358.13;4974791;28;19926;-63
2023/07/09 02:38:38;;;;;;;;;;;;;;;20.24;51.92;98356.41;4974165;28;19934;-62
2023/07/09 02:44:25;;;;;;;;;;;;;;;20.10;52.70;98359.66;4983342;28;19932;-63
2023/07/09 02:46:53;;;;;;;;;;;;;;;20.12;52.35;98359.28;4987803;28;19969;-63
2023/07/09 02:49:21;;;;;;;;;;;;;;;20.23;52.11;98367.78;4979396;28;19977;-62
2023/07/09 02:51:49;;;;;;;;;;;;;;;20.16;52.17;98365.69;4974344;28;20578;-62
2023/07/09 02:54:17;;;;;;;;;;;;;;;20.28;51.80;98365.53;4988450;28;19933;-65
2023/07/09 02:56:47;;;;;;;;;;;;;;;20.13;52.13;98370.00;4978607;28;19957;-62
2023/07/09 02:59:15;;;;;;;;;;;;;;;20.11;52.11;98363.22;4979786;28;19926;-62
2023/07/09 03:01:43;;;;;;;;;;;;;;;19.98;52.70;98370.06;4974596;28;20028;-64
2023/07/09 03:04:12;;;;;;;;;;;;;;;19.97;52.63;98374.75;4973724;28;19965;-63
2023/07/09 03:06:40;;;;;;;;;;;;;;;19.99;52.47;98374.41;4978456;28;19930;-64
2023/07/09 03:09:08;;;;;;;;;;;;;;;20.02;52.50;98379.19;4977136;28;19926;-62
2023/07/09 03:12:03;;;;;;;;;;;;;;;20.03;52.41;98378.84;4970087;28;19933;-62
2023/07/09 03:14:31;;;;;;;;;;;;;;;20.16;52.02;98379.47;4967711;28;19926;-62
2023/07/09 03:16:59;;;;;;;;;;;;;;;20.17;52.02;98375.56;4971777;28;19930;-62
2023/07/09 03:19:52;;;;;;;;;;;;;;;20.15;52.15;98375.13;4982536;28;19929;-62
2023/07/09 03:22:21;;;;;;;;;;;;;;;20.16;52.10;98376.72;4964855;28;19926;-64
2023/07/09 03:24:49;;;;;;;;;;;;;;;20.00;52.65;98378.75;4990359;28;19934;-62
2023/07/09 03:27:19;;;;;;;;;;;;;;;19.89;52.80;98376.56;4971528;28;19926;-61
2023/07/09 03:29:47;;;;;;;;;;;;;;;19.91;52.66;98384.47;4971776;28;19929;-62
2023/07/09 03:32:39;;;;;;;;;;;;;;;19.96;52.66;98386.94;4974335;28;20284;-62
2023/07/09 03:35:08;;;;;;;;;;;;;;;19.94;52.84;98385.72;4973099;28;19930;-64
2023/07/09 03:40:28;;;;;;;;;;;;;;;19.92;52.86;98396.28;4965277;28;19926;-62
2023/07/09 03:42:57;;;;;;;;;;;;;;;19.76;52.96;98391.66;4970934;28;19937;-64
2023/07/09 03:45:25;;;;;;;;;;;;;;;19.75;53.07;98386.47;4972588;28;20025;-63
2023/07/09 03:47:53;;;;;;;;;;;;;;;19.74;53.24;98393.16;4969035;28;20452;-62
2023/07/09 03:50:21;;;;;;;;;;;;;;;19.73;53.31;98391.56;4968916;28;20388;-62
2023/07/09 03:52:51;;;;;;;;;;;;;;;19.83;52.81;98391.78;4978307;28;19930;-63
2023/07/09 03:55:20;;;;;;;;;;;;;;;19.62;53.49;98399.59;4976476;28;19941;-63
2023/07/09 03:57:48;;;;;;;;;;;;;;;19.74;52.96;98387.63;4967650;28;19981;-61
2023/07/09 04:00:18;;;;;;;;;;;;;;;19.69;53.12;98390.69;4970726;28;20427;-62
2023/07/09 04:02:47;;;;;;;;;;;;;;;19.76;52.93;98390.81;4985357;28;19926;-62
2023/07/09 04:05:17;;;;;;;;;;;;;;;19.65;53.48;98395.31;4976600;28;19933;-63
2023/07/09 04:16:25;;;;;;;;;;;;;;;19.88;52.46;98401.75;4975926;28;20355;-64
2023/07/09 04:18:53;;;;;;;;;;;;;;;19.89;52.48;98398.63;4980411;28;19927;-62
2023/07/09 04:21:21;;;;;;;;;;;;;;;19.68;52.99;98406.41;4969500;28;19953;-63
2023/07/09 04:23:49;;;;;;;;;;;;;;;19.68;53.21;98406.41;4972739;28;19926;-64
2023/07/09 04:29:09;;;;;;;;;;;;;;;19.64;53.34;98402.78;4961096;28;19927;-62
2023/07/09 04:31:39;;;;;;;;;;;;;;;19.61;53.21;98407.06;4971834;28;19926;-62
2023/07/09 04:34:07;;;;;;;;;;;;;;;19.61;53.49;98411.78;4980565;28;19960;-62
2023/07/09 04:36:35;;;;;;;;;;;;;;;19.61;53.47;98409.03;4974872;28;19926;-62
2023/07/09 04:39:03;;;;;;;;;;;;;;;19.73;53.09;98408.91;4963076;28;19934;-62
2023/07/09 04:41:32;;;;;;;;;;;;;;;19.46;53.72;98409.81;4976856;28;20016;-64
2023/07/09 04:43:59;;;;;;;;;;;;;;;19.59;53.88;98411.31;4978409;28;20022;-63
2023/07/09 04:46:27;;;;;;;;;;;;;;;19.72;53.58;98412.81;4972454;28;20033;-62
2023/07/09 04:48:57;;;;;;;;;;;;;;;19.73;53.30;98414.41;4977622;28;19937;-62
2023/07/09 04:51:27;;;;;;;;;;;;;;;19.93;52.69;98423.53;4975310;28;19930;-64
2023/07/09 04:53:55;;;;;;;;;;;;;;;20.00;52.87;98406.34;4981261;28;20310;-62
2023/07/09 04:56:23;;;;;;;;;;;;;;;19.95;53.03;98415.69;4970635;28;19933;-63
2023/07/09 04:58:51;;;;;;;;;;;;;;;19.97;52.39;98413.34;4967915;28;19931;-62
2023/07/09 05:01:19;;;;;;;;;;;;;;;19.95;53.17;98412.13;4964042;28;19930;-63
2023/07/09 05:03:47;;;;;;;;;;;;;;;19.95;52.79;98417.66;4975224;28;20421;-62
2023/07/09 05:06:16;;;;;;;;;;;;;;;20.11;52.55;98419.19;4965260;28;19926;-62
2023/07/09 05:08:44;;;;;;;;;;;;;;;20.25;52.03;98424.22;4973453;28;19948;-63
2023/07/09 05:11:12;;;;;;;;;;;;;;;20.25;51.62;98410.41;4972203;28;20384;-63
2023/07/09 05:14:05;;;;;;;;;;;;;;;20.36;51.62;98407.88;4979074;28;20443;-62
2023/07/09 05:16:58;;;;;;;;;;;;;;;20.36;51.76;98416.94;4975063;28;19936;-63
2023/07/09 05:19:51;;;;;;;;;;;;;;;20.43;51.53;98421.81;4970571;28;19977;-63
2023/07/09 05:22:21;;;;;;;;;;;;;;;20.49;51.36;98416.81;4961629;28;19937;-62
2023/07/09 05:24:49;;;;;;;;;;;;;;;20.58;50.78;98418.19;4970987;28;19968;-62
2023/07/09 05:27:17;;;;;;;;;;;;;;;20.73;50.69;98422.03;4968869;28;19933;-63
2023/07/09 05:29:45;;;;;;;;;;;;;;;20.71;50.99;98418.81;4975990;28;19993;-62
2023/07/09 05:32:15;;;;;;;;;;;;;;;20.84;50.59;98423.03;4969182;28;19926;-62
2023/07/09 05:34:43;;;;;;;;;;;;;;;20.93;50.42;98423.59;4967228;28;20355;-62
2023/07/09 05:37:13;;;;;;;;;;;;;;;20.98;49.89;98416.13;4967227;28;19973;-62
2023/07/09 05:39:42;;;;;;;;;;;;;;;21.09;50.02;98422.66;4966813;28;19927;-63
2023/07/09 05:42:10;;;;;;;;;;;;;;;21.09;49.56;98422.66;4972001;28;19927;-63
2023/07/09 05:44:39;;;;;;;;;;;;;;;21.14;49.33;98419.56;4968874;28;19973;-62
2023/07/09 05:47:07;;;;;;;;;;;;;;;21.10;49.77;98422.31;4970522;28;20372;-63
2023/07/09 05:49:35;;;;;;;;;;;;;;;21.07;49.71;98419.47;4977929;28;19925;-65
2023/07/09 05:52:06;;;;;;;;;;;;;;;21.15;49.79;98422.00;4977837;28;19933;-62
2023/07/09 05:54:34;;;;;;;;;;;;;;;21.22;49.61;98421.31;4966212;28;19932;-64
2023/07/09 05:57:04;;;;;;;;;;;;;;;21.21;48.93;98416.97;4968718;28;19931;-62
2023/07/09 05:59:32;;;;;;;;;;;;;;;21.31;48.91;98424.66;4970877;28;19930;-62
2023/07/09 06:02:00;;;;;;;;;;;;;;;21.45;48.84;98430.41;4974856;28;20007;-62
2023/07/09 06:04:28;;;;;;;;;;;;;;;21.33;49.52;98422.31;4965078;28;20004;-63
2023/07/09 06:06:57;;;;;;;;;;;;;;;21.50;48.72;98434.81;4966871;28;19926;-63
2023/07/09 06:12:19;;;;;;;;;;;;;;;21.66;48.73;98438.22;4970671;28;20648;-62
2023/07/09 06:14:47;;;;;;;;;;;;;;;21.70;47.76;98436.31;4979045;28;19930;-62
2023/07/09 06:17:15;;;;;;;;;;;;;;;21.82;48.22;98445.56;4972034;28;20004;-63
2023/07/09 06:19:43;;;;;;;;;;;;;;;21.78;48.22;98434.44;4987509;28;20013;-64
2023/07/09 06:22:11;;;;;;;;;;;;;;;21.76;48.63;98438.75;4974720;28;19949;-63
2023/07/09 06:24:39;;;;;;;;;;;;;;;21.90;48.05;98428.72;4968632;28;19969;-64
2023/07/09 06:27:07;;;;;;;;;;;;;;;21.98;47.64;98430.41;4975221;28;19926;-63
2023/07/09 06:29:37;;;;;;;;;;;;;;;22.10;47.63;98436.88;4969292;28;19977;-63
2023/07/09 06:32:05;;;;;;;;;;;;;;;22.07;47.74;98432.91;4984286;28;19926;-63
2023/07/09 06:34:33;;;;;;;;;;;;;;;22.21;47.61;98437.84;4981585;28;19977;-63
2023/07/09 06:37:01;;;;;;;;;;;;;;;22.34;47.12;98446.72;4967623;28;19926;-63
2023/07/09 06:39:29;;;;;;;;;;;;;;;22.27;47.01;98435.56;4970540;28;19934;-64
2023/07/09 06:41:57;;;;;;;;;;;;;;;22.35;46.91;98435.25;4977164;28;19926;-65
2023/07/09 06:44:56;;;;;;;;;;;;;;;22.43;46.90;98439.72;4973510;28;20008;-64
2023/07/09 06:47:23;;;;;;;;;;;;;;;22.53;47.13;98445.75;4973731;28;19930;-64
2023/07/09 06:49:52;;;;;;;;;;;;;;;22.60;47.30;98445.84;4972150;28;19926;-64
2023/07/09 06:52:20;;;;;;;;;;;;;;;22.71;46.81;98449.53;4970427;28;19941;-63
2023/07/09 06:54:49;;;;;;;;;;;;;;;22.81;46.45;98443.31;4967490;28;19933;-64
2023/07/09 06:57:16;;;;;;;;;;;;;;;22.89;46.06;98450.53;4965260;28;20503;-63
2023/07/09 06:59:44;;;;;;;;;;;;;;;22.96;46.15;98447.84;4967187;28;20088;-65
2023/07/09 07:05:06;;;;;;;;;;;;;;;23.14;45.35;98444.44;4983958;28;19926;-65
2023/07/09 07:07:58;;;;;;;;;;;;;;;23.20;45.05;98442.91;4992050;28;19938;-64
2023/07/09 07:11:15;;;;;;;;;;;;;;;23.32;44.86;98444.59;4989494;28;19933;-64
2023/07/09 07:14:08;;;;;;;;;;;;;;;23.38;45.22;98443.84;4980867;28;19936;-64
2023/07/09 07:16:36;;;;;;;;;;;;;;;23.49;44.97;98443.97;4982602;28;19932;-65
2023/07/09 07:19:06;;;;;;;;;;;;;;;23.56;45.05;98443.22;4986269;28;19992;-63
2023/07/09 07:21:34;;;;;;;;;;;;;;;23.60;44.87;98442.06;4985250;28;20415;-64
2023/07/09 07:24:03;;;;;;;;;;;;;;;23.66;44.48;98440.56;4985076;28;19925;-64
2023/07/09 07:26:55;;;;;;;;;;;;;;;23.78;44.86;98439.44;4989190;28;20560;-64
2023/07/09 07:29:23;;;;;;;;;;;;;;;23.84;44.48;98437.91;4987089;28;19972;-63
2023/07/09 07:31:51;;;;;;;;;;;;;;;23.88;44.20;98438.72;4983521;28;19976;-64
2023/07/09 07:34:21;;;;;;;;;;;;;;;23.95;43.99;98444.31;4997265;28;19926;-68
2023/07/09 07:36:50;;;;;;;;;;;;;;;23.99;43.75;98438.78;4984420;28;19927;-64
2023/07/09 07:39:18;;;;;;;;;;;;;;;24.10;43.63;98434.09;4985066;28;19930;-66
2023/07/09 07:41:46;;;;;;;;;;;;;;;24.13;43.39;98438.06;5002167;28;20467;-66
2023/07/09 07:44:14;;;;;;;;;;;;;;;24.23;43.92;98437.31;4984770;28;19972;-65
2023/07/09 07:46:42;;;;;;;;;;;;;;;24.31;43.36;98436.19;4984793;28;20394;-62
2023/07/09 07:49:30;;;;;;;;;;;;;;;24.42;43.11;98439.03;4986860;28;19937;-63
2023/07/09 07:52:32;;;;;;;;;;;;;;;24.48;43.39;98437.47;4989597;28;20282;-64
2023/07/09 07:55:52;;;;;;;;;;;;;;;24.56;43.39;98437.09;4982929;28;20041;-63
2023/07/09 07:58:20;;;;;;;;;;;;;;;24.62;42.27;98431.97;4990063;28;19929;-64
2023/07/09 08:00:48;;;;;;;;;;;;;;;24.72;43.04;98427.63;4985006;28;19934;-63
2023/07/09 08:03:35;;;;;;;;;;;;;;;25.03;42.54;98428.88;5006536;28;19936;-63
2023/07/09 08:12:27;;;;;;;;;;;;;;;25.02;42.21;98430.06;5012870;28;19925;-62
2023/07/09 08:14:56;;;;;;;;;;;;;;;24.85;43.00;98422.50;5007624;28;19932;-64
2023/07/09 08:17:24;;;;;;;;;;;;;;;25.15;42.60;98422.97;5004945;28;19959;-63
2023/07/09 08:19:55;;;;;;;;;;;;;;;25.53;40.84;98418.59;4998302;28;19940;-59
2023/07/09 08:25:35;;;;;;;;;;;;;;;25.70;41.08;98416.19;5006563;28;20329;-59
2023/07/09 08:28:15;;;;;;;;;;;;;;;25.88;40.15;98422.53;5005246;28;20359;-58
2023/07/09 08:30:43;;;;;;;;;;;;;;;25.97;40.29;98420.13;5001157;28;20012;-59
2023/07/09 08:33:11;;;;;;;;;;;;;;;25.82;39.67;98416.59;5006757;28;19930;-59
2023/07/09 08:35:38;;;;;;;;;;;;;;;26.06;39.52;98417.75;5002040;28;20024;-57
2023/07/09 08:38:08;;;;;;;;;;;;;;;26.13;39.70;98406.56;5005399;28;20054;-58
2023/07/09 08:40:39;;;;;;;;;;;;;;;26.10;39.20;98407.38;5006813;28;20019;-60
2023/07/09 08:43:09;;;;;;;;;;;;;;;26.66;38.09;98410.34;5004617;28;19993;-59
2023/07/09 08:45:40;;;;;;;;;;;;;;;26.50;38.25;98413.63;4991273;28;19926;-62
2023/07/09 08:48:09;;;;;;;;;;;;;;;26.22;38.84;98413.72;4989086;28;20394;-60
2023/07/09 08:50:40;;;;;;;;;;;;;;;26.23;39.93;98409.72;4992033;28;19925;-59
2023/07/09 08:53:10;;;;;;;;;;;;;;;26.16;39.24;98404.19;4997410;28;20421;-60
2023/07/09 08:55:40;;;;;;;;;;;;;;;26.37;39.42;98406.91;4985166;28;19984;-61
2023/07/09 08:58:11;;;;;;;;;;;;;;;26.59;38.52;98400.03;4980012;28;20012;-60
2023/07/09 09:00:41;;;;;;;;;;;;;;;26.69;38.40;98415.13;4985418;28;20013;-59
2023/07/09 09:03:14;;;;;;;;;;;;;;;26.71;38.28;98414.72;4993734;28;20417;-59
2023/07/09 09:05:48;;;;;;;;;;;;;;;26.69;37.87;98414.34;4989963;28;19933;-60
2023/07/09 09:08:20;;;;;;;;;;;;;;;27.55;36.90;98408.94;4996325;28;20028;-59
2023/07/09 09:10:53;;;;;;;;;;;;;;;27.18;37.75;98415.22;4994509;28;19925;-59
2023/07/09 09:13:21;;;;;;;;;;;;;;;26.90;37.69;98408.63;4992781;28;20379;-59
2023/07/09 09:15:50;;;;;;;;;;;;;;;26.90;37.96;98414.19;4980924;28;19926;-59
2023/07/09 09:18:21;;;;;;;;;;;;;;;27.36;36.36;98413.88;4983370;28;20376;-59
2023/07/09 09:20:53;;;;;;;;;;;;;;;27.00;37.13;98410.53;4990021;28;19980;-59
2023/07/09 09:23:22;;;;;;;;;;;;;;;27.37;35.49;98407.06;4991432;28;19964;-58
2023/07/09 09:25:51;;;;;;;;;;;;;;;27.45;35.96;98405.03;4986709;28;19997;-63
2023/07/09 09:28:31;;;;;;;;;;;;;;;28.02;33.93;98400.91;4986233;28;20523;-58
2023/07/09 09:30:59;;;;;;;;;;;;;;;27.86;34.36;98395.91;4981300;28;20342;-60
2023/07/09 09:33:27;;;;;;;;;;;;;;;28.53;33.25;98402.69;4993092;28;20020;-58
2023/07/09 09:36:03;;;;;;;;;;;;;;;27.91;34.98;98403.81;4995783;28;19975;-60
2023/07/09 09:38:33;;;;;;;;;;;;;;;27.72;34.58;98408.00;4991557;28;19926;-59
2023/07/09 09:41:02;;;;;;;;;;;;;;;27.32;35.33;98410.31;4989881;28;19926;-59
2023/07/09 09:43:32;;;;;;;;;;;;;;;27.38;34.26;98399.53;4986396;28;19963;-61
2023/07/09 09:46:01;;;;;;;;;;;;;;;27.79;34.32;98407.91;4972506;28;19932;-59
2023/07/09 09:48:30;;;;;;;;;;;;;;;27.99;32.51;98405.31;5000893;28;19934;-58
2023/07/09 09:51:01;;;;;;;;;;;;;;;27.53;35.15;98406.53;4991263;28;20387;-62
2023/07/09 09:53:30;;;;;;;;;;;;;;;27.67;33.60;98397.25;5003137;28;19926;-59
2023/07/09 09:55:59;;;;;;;;;;;;;;;27.74;34.77;98399.19;4996503;28;19926;-61
2023/07/09 09:58:28;;;;;;;;;;;;;;;27.65;34.12;98399.69;4992977;28;19934;-60
2023/07/09 10:00:58;;;;;;;;;;;;;;;27.89;32.05;98406.22;4994697;28;19929;-60
2023/07/09 10:03:33;;;;;;;;;;;;;;;27.97;32.41;98401.38;5019490;28;19929;-59
2023/07/09 10:06:03;;;;;;;;;;;;;;;27.81;33.23;98404.72;5011690;28;19967;-63
2023/07/09 10:08:33;;;;;;;;;;;;;;;27.89;33.76;98395.84;5024846;28;19925;-58
2023/07/09 10:11:08;;;;;;;;;;;;;;;28.16;32.11;98403.53;5024452;28;19929;-58
2023/07/09 10:13:36;;;;;;;;;;;;;;;27.82;32.51;98400.72;5023445;28;20384;-59
2023/07/09 10:16:06;;;;;;;;;;;;;;;28.49;31.53;98396.34;5008204;28;19925;-60
2023/07/09 10:18:39;;;;;;;;;;;;;;;28.03;34.16;98394.13;5012882;28;19933;-58
2023/07/09 10:21:08;;;;;;;;;;;;;;;27.80;32.87;98391.97;5000718;28;19930;-58
2023/07/09 10:23:37;;;;;;;;;;;;;;;27.74;33.97;98386.03;4999857;28;20476;-58
2023/07/09 10:26:10;;;;;;;;;;;;;;;28.28;31.27;98389.00;4998255;28;19992;-59
2023/07/09 10:28:57;;;;;;;;;;;;;;;28.18;32.24;98399.13;4991016;28;20017;-58
2023/07/09 10:31:27;;;;;;;;;;;;;;;27.93;32.01;98388.22;4997102;28;19936;-58
2023/07/09 10:33:58;;;;;;;;;;;;;;;28.08;30.47;98386.06;4998548;28;19926;-58
2023/07/09 10:36:29;;;;;;;;;;;;;;;28.07;32.48;98386.47;4992164;28;19930;-58
2023/07/09 10:39:00;;;;;;;;;;;;;;;28.09;31.74;98381.28;4993404;28;19926;-58
2023/07/09 10:41:29;;;;;;;;;;;;;;;27.77;34.95;98382.44;4996697;28;20348;-59
2023/07/09 10:43:59;;;;;;;;;;;;;;;28.46;30.83;98377.66;4995040;28;20378;-59
2023/07/09 10:46:28;;;;;;;;;;;;;;;28.71;29.78;98371.72;4988269;28;19984;-58
2023/07/09 10:48:58;;;;;;;;;;;;;;;28.81;30.67;98375.56;4994973;28;19973;-61
2023/07/09 10:51:28;;;;;;;;;;;;;;;28.96;29.52;98376.94;4988215;28;19929;-61
2023/07/09 10:53:57;;;;;;;;;;;;;;;28.76;29.57;98373.22;4992866;28;19929;-61
2023/07/09 10:56:26;;;;;;;;;;;;;;;28.97;28.54;98370.94;5009452;28;19929;-60
2023/07/09 10:58:56;;;;;;;;;;;;;;;29.12;28.35;98367.91;4994517;28;19963;-59
2023/07/09 11:01:27;;;;;;;;;;;;;;;29.39;28.54;98370.66;4997837;28;19925;-60
2023/07/09 11:03:55;;;;;;;;;;;;;;;29.60;27.66;98363.91;5001578;28;19930;-60
2023/07/09 11:06:27;;;;;;;;;;;;;;;29.13;29.21;98364.69;4991232;28;19985;-59
2023/07/09 11:08:55;;;;;;;;;;;;;;;29.34;28.48;98359.94;4992514;28;19961;-59
2023/07/09 11:11:25;;;;;;;;;;;;;;;29.11;30.43;98363.53;4984775;28;20355;-59
2023/07/09 11:13:57;;;;;;;;;;;;;;;29.37;28.30;98362.69;4993771;28;19930;-59
2023/07/09 11:16:26;;;;;;;;;;;;;;;29.27;28.56;98355.28;4993710;28;19926;-60
2023/07/09 11:18:55;;;;;;;;;;;;;;;28.98;29.98;98354.97;4996937;28;19925;-62
2023/07/09 11:21:23;;;;;;;;;;;;;;;29.30;29.41;98354.44;4996037;28;19926;-58
2023/07/09 11:23:53;;;;;;;;;;;;;;;28.97;30.31;98347.75;4994918;28;19972;-58
2023/07/09 11:26:25;;;;;;;;;;;;;;;29.53;27.92;98353.66;4994868;28;19926;-59
2023/07/09 11:28:53;;;;;;;;;;;;;;;29.89;27.50;98356.56;4993782;28;19933;-59
2023/07/09 11:31:24;;;;;;;;;;;;;;;29.56;28.47;98352.00;4990715;28;20041;-58
2023/07/09 11:34:02;;;;;;;;;;;;;;;29.49;28.17;98344.50;4994130;28;19981;-59
2023/07/09 11:36:31;;;;;;;;;;;;;;;29.39;29.49;98345.47;4995194;28;19983;-60
2023/07/09 11:38:59;;;;;;;;;;;;;;;29.13;29.84;98336.69;4995874;28;20335;-59
2023/07/09 11:41:28;;;;;;;;;;;;;;;29.85;27.72;98339.03;4995326;28;20326;-59
2023/07/09 11:44:03;;;;;;;;;;;;;;;29.71;28.13;98342.91;4983908;28;19930;-59
2023/07/09 11:46:33;;;;;;;;;;;;;;;29.21;29.35;98335.38;4987272;28;19926;-59
2023/07/09 11:49:01;;;;;;;;;;;;;;;29.13;28.99;98333.91;4988434;28;19929;-63
2023/07/09 11:51:36;;;;;;;;;;;;;;;29.72;28.72;98338.09;4993267;28;19992;-59
2023/07/09 11:54:04;;;;;;;;;;;;;;;29.58;29.81;98327.97;4992424;28;19969;-60
2023/07/09 11:56:33;;;;;;;;;;;;;;;29.15;30.51;98328.69;4990201;28;19925;-59
2023/07/09 11:59:01;;;;;;;;;;;;;;;29.32;29.71;98331.59;4994051;28;19925;-58
2023/07/09 12:01:30;;;;;;;;;;;;;;;29.41;29.65;98324.25;4976091;28;19930;-58
2023/07/09 12:04:00;;;;;;;;;;;;;;;29.38;30.33;98319.50;4990335;28;19968;-63
2023/07/09 12:06:28;;;;;;;;;;;;;;;29.36;30.00;98326.75;4988694;28;20533;-58
2023/07/09 12:08:56;;;;;;;;;;;;;;;29.66;29.34;98325.81;4993344;28;19933;-59
2023/07/09 12:11:25;;;;;;;;;;;;;;;29.53;29.67;98325.66;4983406;28;19933;-62
2023/07/09 12:13:53;;;;;;;;;;;;;;;29.02;31.32;98319.31;4985447;28;20034;-60
2023/07/09 12:16:22;;;;;;;;;;;;;;;28.89;29.37;98315.50;4982591;28;20652;-59
2023/07/09 12:18:50;;;;;;;;;;;;;;;29.42;28.46;98316.63;4991395;28;20496;-60
2023/07/09 12:21:19;;;;;;;;;;;;;;;29.41;30.33;98313.06;4988895;28;20561;-59
2023/07/09 12:23:47;;;;;;;;;;;;;;;29.22;31.33;98313.78;4992615;28;19925;-59
2023/07/09 12:26:15;;;;;;;;;;;;;;;28.98;32.45;98301.81;4987856;28;19925;-63
2023/07/09 12:28:43;;;;;;;;;;;;;;;29.02;29.62;98296.94;4993844;28;19925;-59
2023/07/09 12:31:12;;;;;;;;;;;;;;;28.95;31.69;98306.25;4987067;28;19929;-59
2023/07/09 12:33:47;;;;;;;;;;;;;;;29.20;28.87;98293.84;4990526;28;19932;-59
2023/07/09 12:36:15;;;;;;;;;;;;;;;28.93;30.78;98293.88;4994665;28;19926;-59
2023/07/09 12:38:45;;;;;;;;;;;;;;;29.21;31.20;98290.63;5000879;28;19960;-58
2023/07/09 12:41:16;;;;;;;;;;;;;;;29.06;30.53;98292.06;4987266;28;19926;-59
2023/07/09 12:43:44;;;;;;;;;;;;;;;29.08;32.90;98286.84;4991988;28;19926;-60
2023/07/09 12:46:12;;;;;;;;;;;;;;;29.12;31.66;98281.97;4984037;28;19933;-59
2023/07/09 12:48:42;;;;;;;;;;;;;;;28.92;30.15;98286.69;4988361;28;19929;-59
2023/07/09 12:51:14;;;;;;;;;;;;;;;29.36;29.42;98284.75;4986795;28;19926;-59
2023/07/09 12:53:44;;;;;;;;;;;;;;;29.81;26.80;98273.09;4988390;28;19926;-59
2023/07/09 12:56:12;;;;;;;;;;;;;;;29.60;28.05;98269.50;4988137;28;19980;-60
2023/07/09 12:58:40;;;;;;;;;;;;;;;29.37;30.46;98275.16;4985424;28;19955;-60
2023/07/09 13:01:15;;;;;;;;;;;;;;;29.60;28.81;98266.72;4988986;28;19996;-59
2023/07/09 13:03:43;;;;;;;;;;;;;;;29.85;28.34;98279.44;4986526;28;19980;-59
2023/07/09 13:06:25;;;;;;;;;;;;;;;30.34;27.57;98285.22;4989379;28;19984;-59
2023/07/09 13:08:55;;;;;;;;;;;;;;;30.23;27.40;98268.63;4985545;28;19930;-59
2023/07/09 13:11:23;;;;;;;;;;;;;;;30.05;28.32;98271.03;4990300;28;19929;-60
2023/07/09 13:13:55;;;;;;;;;;;;;;;29.86;28.38;98275.41;4991765;28;19929;-58
2023/07/09 13:16:23;;;;;;;;;;;;;;;30.15;27.03;98275.59;4985812;28;20651;-58
2023/07/09 13:18:51;;;;;;;;;;;;;;;29.75;28.76;98273.63;4988173;28;20014;-58
2023/07/09 13:21:20;;;;;;;;;;;;;;;29.96;25.99;98274.41;4989550;28;19959;-59
2023/07/09 13:23:48;;;;;;;;;;;;;;;29.60;30.57;98275.13;4988753;28;19930;-60
2023/07/09 13:26:17;;;;;;;;;;;;;;;30.04;26.05;98270.19;4991345;28;19930;-59
2023/07/09 13:28:46;;;;;;;;;;;;;;;30.12;26.81;98262.47;4988641;28;20028;-58
2023/07/09 13:31:18;;;;;;;;;;;;;;;29.95;27.96;98261.63;4982429;28;19977;-59
2023/07/09 13:34:08;;;;;;;;;;;;;;;29.90;26.49;98259.31;4978412;28;20391;-59
2023/07/09 13:36:37;;;;;;;;;;;;;;;29.88;26.68;98259.75;4987704;28;20267;-59
2023/07/09 13:39:05;;;;;;;;;;;;;;;29.83;26.52;98253.84;4987812;28;19936;-60
2023/07/09 13:41:34;;;;;;;;;;;;;;;30.06;26.21;98256.56;4988557;28;19934;-59
2023/07/09 13:44:03;;;;;;;;;;;;;;;29.99;26.04;98257.53;4976923;28;19926;-60
2023/07/09 13:46:31;;;;;;;;;;;;;;;29.69;27.86;98261.34;4982729;28;19933;-59
2023/07/09 13:48:59;;;;;;;;;;;;;;;29.65;28.00;98260.63;4985163;28;19930;-61
2023/07/09 13:51:27;;;;;;;;;;;;;;;29.76;26.44;98254.78;4983559;28;19926;-59
2023/07/09 13:53:55;;;;;;;;;;;;;;;29.96;25.68;98254.78;4989822;28;19934;-58
2023/07/09 13:56:24;;;;;;;;;;;;;;;29.94;26.12;98248.84;4989992;28;19936;-57